Heisler, Canada
Current Conditions -  °F | °C
As of 3:00 PM on Thursday 18 Dec 2014 (Local Time) from CYEG Reporting Station
Few Clouds Few Clouds  
Wind Chill: 13°   Ceiling: Unl
Heat Index: 19°   Visibility: 10mi
Dew Point: 18°   Wind: 5mph
Humidity: 93%   Direction: 190°S
Pressure: 29.82"   Gusts: NA
Location:  52.67°N, 112.2°W
Report Text: CYEG 182200Z 19004KT 10SM FEW120 FEW160 FEW250 M07/M08 A2982 RMK AC1AC1CI1 CI TR BR SLP144
Loading
Personal Weather Stations






























Interactive Weather Map New forecast layout! Learn more

10-Day Weather Forecast

Advertisements
Track Severe Weather on mobile